Time;durP1;ratioP1;P1;durP2;ratioP2;P2;SDS_P1;SDS_P2;PMS_P1;PMS_P2;Temp;Humidity;BMP_temperature;BMP_pressure;BME280_temperature;BME280_humidity;BME280_pressure;Samples;Min_cycle;Max_cycle;Signal;HPM_P1;HPM_P2
2023/07/02 00:02:37;;;;;;;23.30;18.00;;;;;;;;;;10561277;28;20028;-85
2023/07/02 00:07:38;;;;;;;29.58;21.27;;;;;;;;;;10549065;28;20544;-85
2023/07/02 00:12:39;;;;;;;30.02;21.95;;;;;;;;;;10567059;28;20097;-85
2023/07/02 00:17:40;;;;;;;27.30;19.55;;;;;;;;;;10557657;28;20143;-84
2023/07/02 00:22:46;;;;;;;26.15;18.92;;;;;;;;;;10553290;28;20140;-85
2023/07/02 00:27:47;;;;;;;42.60;28.65;;;;;;;;;;10502649;28;20028;-85
2023/07/02 00:32:48;;;;;;;43.67;30.00;;;;;;;;;;10544646;28;20024;-85
2023/07/02 00:37:49;;;;;;;50.42;39.25;;;;;;;;;;10528254;28;20394;-86
2023/07/02 00:42:50;;;;;;;47.00;35.42;;;;;;;;;;10559900;28;20032;-85
2023/07/02 00:47:52;;;;;;;41.53;30.08;;;;;;;;;;10546386;28;20591;-85
2023/07/02 00:52:53;;;;;;;33.97;27.10;;;;;;;;;;10540348;28;20028;-86
2023/07/02 00:57:56;;;;;;;33.95;26.23;;;;;;;;;;10536211;28;20040;-84
2023/07/02 01:02:58;;;;;;;36.03;26.77;;;;;;;;;;10529590;28;20020;-86
2023/07/02 01:07:59;;;;;;;33.00;24.30;;;;;;;;;;10540803;28;20019;-86
2023/07/02 01:13:02;;;;;;;31.75;23.17;;;;;;;;;;10566873;28;20131;-86
2023/07/02 01:18:04;;;;;;;29.45;22.13;;;;;;;;;;10536079;28;20513;-85
2023/07/02 01:23:05;;;;;;;27.42;19.77;;;;;;;;;;10491247;28;20039;-86
2023/07/02 01:28:06;;;;;;;24.55;18.60;;;;;;;;;;10510584;28;20041;-85
2023/07/02 01:33:07;;;;;;;26.38;20.13;;;;;;;;;;10524576;28;20034;-85
2023/07/02 01:38:08;;;;;;;22.88;17.50;;;;;;;;;;10530488;28;20453;-85
2023/07/02 01:43:10;;;;;;;24.20;18.73;;;;;;;;;;10528447;28;20031;-86
2023/07/02 01:48:11;;;;;;;28.80;20.30;;;;;;;;;;10547220;28;20036;-85
2023/07/02 01:53:12;;;;;;;26.67;18.38;;;;;;;;;;10549449;28;20407;-85
2023/07/02 01:58:13;;;;;;;23.67;16.95;;;;;;;;;;10542110;28;20036;-85
2023/07/02 02:03:14;;;;;;;29.75;20.02;;;;;;;;;;10540646;28;20039;-86
2023/07/02 02:08:15;;;;;;;23.63;17.65;;;;;;;;;;10554727;28;20042;-85
2023/07/02 02:13:16;;;;;;;24.60;18.27;;;;;;;;;;10512341;28;20146;-85
2023/07/02 02:18:17;;;;;;;25.95;18.55;;;;;;;;;;10531694;28;20039;-86
2023/07/02 02:23:18;;;;;;;31.35;22.17;;;;;;;;;;10553051;28;20036;-85
2023/07/02 02:28:19;;;;;;;31.77;21.45;;;;;;;;;;10549143;28;20030;-85
2023/07/02 02:33:21;;;;;;;26.35;18.48;;;;;;;;;;10547979;28;20035;-85
2023/07/02 02:38:22;;;;;;;30.95;21.73;;;;;;;;;;10555914;28;20036;-85
2023/07/02 02:43:24;;;;;;;27.42;18.88;;;;;;;;;;10554638;28;20028;-85
2023/07/02 02:48:25;;;;;;;26.35;18.73;;;;;;;;;;10553538;28;20035;-86
2023/07/02 02:53:26;;;;;;;30.85;21.50;;;;;;;;;;10565473;28;20437;-85
2023/07/02 02:58:28;;;;;;;33.55;21.98;;;;;;;;;;10561364;28;20043;-85
2023/07/02 03:03:29;;;;;;;34.00;24.30;;;;;;;;;;10547056;28;20082;-85
2023/07/02 03:08:31;;;;;;;37.05;25.58;;;;;;;;;;10545246;28;20023;-84
2023/07/02 03:13:32;;;;;;;26.40;19.98;;;;;;;;;;10572425;28;20059;-85
2023/07/02 03:18:33;;;;;;;37.72;23.50;;;;;;;;;;10543067;28;20036;-84
2023/07/02 03:23:34;;;;;;;37.17;23.83;;;;;;;;;;10558098;28;20032;-84
2023/07/02 03:28:36;;;;;;;32.80;22.92;;;;;;;;;;10553804;28;20502;-85
2023/07/02 03:33:37;;;;;;;33.85;22.92;;;;;;;;;;10529136;28;20036;-86
2023/07/02 03:38:38;;;;;;;27.88;20.83;;;;;;;;;;10543018;28;20043;-85
2023/07/02 03:43:41;;;;;;;28.45;21.20;;;;;;;;;;10546507;28;20062;-85
2023/07/02 03:48:42;;;;;;;30.10;20.42;;;;;;;;;;10544468;28;20033;-87
2023/07/02 03:53:45;;;;;;;25.15;17.83;;;;;;;;;;10556303;28;20114;-85
2023/07/02 03:58:46;;;;;;;26.83;18.95;;;;;;;;;;10557572;28;20039;-84
2023/07/02 04:03:50;;;;;;;29.58;21.83;;;;;;;;;;10575336;28;20035;-85
2023/07/02 04:08:51;;;;;;;28.23;21.90;;;;;;;;;;10552712;28;20170;-85
2023/07/02 04:13:52;;;;;;;28.05;21.08;;;;;;;;;;10548617;28;20051;-85
2023/07/02 04:18:53;;;;;;;25.65;20.20;;;;;;;;;;10567207;28;20040;-84
2023/07/02 04:23:55;;;;;;;25.25;17.85;;;;;;;;;;10542419;28;20024;-85
2023/07/02 04:28:56;;;;;;;21.65;14.45;;;;;;;;;;10541900;28;20038;-85
2023/07/02 04:33:58;;;;;;;17.05;12.07;;;;;;;;;;10548635;28;20487;-84
2023/07/02 04:38:59;;;;;;;16.88;12.30;;;;;;;;;;10574548;28;20119;-85
2023/07/02 04:44:03;;;;;;;16.27;11.27;;;;;;;;;;10573438;28;20031;-85
2023/07/02 04:49:04;;;;;;;15.25;10.90;;;;;;;;;;10556378;28;20035;-84
2023/07/02 04:54:05;;;;;;;15.45;10.57;;;;;;;;;;10570515;28;20024;-84
2023/07/02 04:59:05;;;;;;;15.00;10.32;;;;;;;;;;10544673;28;20494;-84
2023/07/02 05:04:06;;;;;;;13.82;9.93;;;;;;;;;;10555387;28;20106;-85
2023/07/02 05:20:09;;;;;;;10.48;7.38;;;;;;;;;;10606931;27;20334;-85
2023/07/02 05:25:10;;;;;;;10.90;6.88;;;;;;;;;;10606637;28;20039;-82
2023/07/02 05:30:12;;;;;;;8.32;5.35;;;;;;;;;;10606412;28;20024;-84
2023/07/02 05:35:14;;;;;;;6.53;4.10;;;;;;;;;;10607835;27;20035;-83
2023/07/02 05:40:15;;;;;;;9.90;4.13;;;;;;;;;;10606244;28;20031;-84
2023/07/02 05:45:16;;;;;;;5.00;3.20;;;;;;;;;;10605647;27;20054;-84
2023/07/02 05:50:17;;;;;;;4.90;3.72;;;;;;;;;;10605454;28;20038;-85
2023/07/02 05:55:18;;;;;;;6.13;3.28;;;;;;;;;;10606268;28;20058;-84
2023/07/02 06:00:19;;;;;;;3.67;3.00;;;;;;;;;;10605957;28;20024;-83
2023/07/02 06:05:20;;;;;;;4.25;3.05;;;;;;;;;;10606047;28;20027;-83
2023/07/02 06:10:21;;;;;;;4.03;3.20;;;;;;;;;;10605169;27;20031;-83
2023/07/02 06:15:22;;;;;;;5.18;3.05;;;;;;;;;;10604447;27;20896;-86
2023/07/02 06:20:23;;;;;;;5.50;2.50;;;;;;;;;;10580727;27;20115;-82
2023/07/02 06:25:24;;;;;;;4.10;2.67;;;;;;;;;;10571937;28;20024;-84
2023/07/02 06:30:26;;;;;;;3.70;2.85;;;;;;;;;;10549804;28;20032;-85
2023/07/02 06:35:27;;;;;;;4.82;2.97;;;;;;;;;;10552723;28;20378;-83
2023/07/02 06:40:28;;;;;;;3.42;2.60;;;;;;;;;;10554262;28;20032;-84
2023/07/02 06:45:29;;;;;;;4.90;2.55;;;;;;;;;;10536153;28;20040;-84
2023/07/02 06:50:30;;;;;;;3.67;3.13;;;;;;;;;;10527362;28;20071;-84
2023/07/02 06:55:31;;;;;;;5.82;3.33;;;;;;;;;;10531897;28;20103;-85
2023/07/02 07:00:35;;;;;;;2.97;2.50;;;;;;;;;;10539366;28;20036;-83
2023/07/02 07:05:36;;;;;;;2.97;2.67;;;;;;;;;;10553763;22;20054;-86
2023/07/02 07:10:37;;;;;;;3.60;2.97;;;;;;;;;;10537643;28;20024;-85
2023/07/02 07:15:39;;;;;;;4.28;2.58;;;;;;;;;;10531747;28;20024;-85
2023/07/02 07:20:40;;;;;;;3.50;2.40;;;;;;;;;;10531458;28;20478;-85
2023/07/02 07:25:41;;;;;;;3.03;2.72;;;;;;;;;;10525062;28;20081;-86
2023/07/02 07:30:43;;;;;;;4.00;2.13;;;;;;;;;;10527133;28;20165;-86
2023/07/02 07:35:44;;;;;;;4.13;2.40;;;;;;;;;;10565991;28;20030;-86
2023/07/02 07:40:45;;;;;;;2.72;2.20;;;;;;;;;;10558527;28;20039;-86
2023/07/02 07:45:46;;;;;;;3.45;2.00;;;;;;;;;;10572733;28;20530;-88
2023/07/02 07:50:47;;;;;;;2.83;2.20;;;;;;;;;;10559716;28;20039;-86
2023/07/02 07:55:48;;;;;;;5.25;2.78;;;;;;;;;;10550906;27;20031;-87
2023/07/02 08:00:49;;;;;;;4.40;2.63;;;;;;;;;;10570198;28;20066;-86
2023/07/02 08:05:50;;;;;;;4.10;3.00;;;;;;;;;;10563627;28;20134;-86
2023/07/02 08:10:51;;;;;;;3.40;2.78;;;;;;;;;;10552727;28;20024;-86
2023/07/02 08:15:52;;;;;;;3.65;2.65;;;;;;;;;;10535156;22;20970;-85
2023/07/02 08:20:53;;;;;;;6.32;4.10;;;;;;;;;;10483258;28;20024;-88
2023/07/02 08:25:54;;;;;;;4.75;3.10;;;;;;;;;;10486687;28;20032;-87
2023/07/02 08:30:55;;;;;;;4.22;3.33;;;;;;;;;;10486628;28;20036;-87
2023/07/02 08:35:57;;;;;;;5.03;3.60;;;;;;;;;;10486220;28;20428;-88
2023/07/02 08:40:58;;;;;;;4.45;3.80;;;;;;;;;;10486620;28;20024;-87
2023/07/02 08:45:59;;;;;;;6.10;4.20;;;;;;;;;;10483345;28;20044;-87
2023/07/02 08:51:00;;;;;;;4.70;4.20;;;;;;;;;;10486644;28;20364;-87
2023/07/02 08:56:03;;;;;;;5.22;4.18;;;;;;;;;;10493373;28;20031;-86
2023/07/02 09:01:08;;;;;;;5.60;3.95;;;;;;;;;;10519915;28;20100;-87
2023/07/02 09:06:10;;;;;;;4.82;3.80;;;;;;;;;;10471774;28;20621;-86
2023/07/02 09:11:16;;;;;;;5.85;4.18;;;;;;;;;;10486142;28;20039;-87
2023/07/02 09:16:31;;;;;;;6.15;4.15;;;;;;;;;;10472232;28;20049;-87
2023/07/02 09:21:42;;;;;;;5.68;4.38;;;;;;;;;;10480805;28;20494;-88
2023/07/02 09:26:44;;;;;;;7.60;4.50;;;;;;;;;;10484514;28;20115;-84
2023/07/02 09:31:46;;;;;;;4.85;4.25;;;;;;;;;;10475607;28;20049;-86
2023/07/02 09:36:47;;;;;;;4.85;4.15;;;;;;;;;;10469185;28;20353;-87
2023/07/02 09:41:50;;;;;;;6.53;4.55;;;;;;;;;;10483302;28;20033;-86
2023/07/02 09:46:56;;;;;;;6.60;4.75;;;;;;;;;;10485751;28;20036;-85
2023/07/02 09:51:57;;;;;;;6.15;5.25;;;;;;;;;;10484142;28;20059;-83
2023/07/02 09:56:59;;;;;;;8.13;6.00;;;;;;;;;;10490517;28;20028;-83
2023/07/02 10:02:00;;;;;;;5.50;4.82;;;;;;;;;;10485371;28;20395;-83
2023/07/02 10:07:01;;;;;;;7.28;5.45;;;;;;;;;;10491509;28;20047;-85
2023/07/02 10:12:02;;;;;;;12.32;5.93;;;;;;;;;;10492347;28;20027;-84
2023/07/02 10:17:03;;;;;;;7.72;5.70;;;;;;;;;;10490299;28;20090;-83
2023/07/02 10:22:07;;;;;;;7.85;6.32;;;;;;;;;;10491167;28;20456;-83
2023/07/02 10:27:08;;;;;;;7.00;6.27;;;;;;;;;;10492036;28;20604;-84
2023/07/02 10:32:09;;;;;;;9.27;6.35;;;;;;;;;;10491753;28;20399;-84
2023/07/02 10:37:10;;;;;;;8.68;6.57;;;;;;;;;;10489969;28;20028;-85
2023/07/02 10:42:11;;;;;;;7.28;4.80;;;;;;;;;;10490948;28;20047;-84
2023/07/02 10:47:12;;;;;;;7.53;5.10;;;;;;;;;;10491382;28;20044;-85
2023/07/02 10:52:13;;;;;;;6.57;4.57;;;;;;;;;;10491467;28;20040;-83
2023/07/02 10:57:16;;;;;;;4.88;4.38;;;;;;;;;;10490836;28;20044;-84
2023/07/02 11:02:18;;;;;;;5.97;4.00;;;;;;;;;;10476929;28;20025;-84
2023/07/02 11:07:23;;;;;;;4.65;3.90;;;;;;;;;;10488743;28;20032;-83
2023/07/02 11:12:31;;;;;;;3.42;3.13;;;;;;;;;;10490056;28;20035;-83
2023/07/02 11:17:32;;;;;;;4.53;3.38;;;;;;;;;;10488921;28;20080;-83
2023/07/02 11:22:33;;;;;;;4.68;3.63;;;;;;;;;;10489238;28;20115;-84
2023/07/02 11:27:34;;;;;;;7.72;3.00;;;;;;;;;;10475852;28;20749;-87
2023/07/02 11:32:48;;;;;;;4.68;3.08;;;;;;;;;;10487698;28;20115;-82
2023/07/02 11:37:49;;;;;;;3.50;3.05;;;;;;;;;;10489283;28;20479;-86
2023/07/02 11:42:50;;;;;;;7.35;2.90;;;;;;;;;;10482438;28;20051;-87
2023/07/02 11:47:51;;;;;;;4.22;2.80;;;;;;;;;;10477523;28;20020;-86
2023/07/02 11:52:52;;;;;;;5.72;3.05;;;;;;;;;;10466331;28;20502;-89
2023/07/02 11:57:53;;;;;;;3.60;2.92;;;;;;;;;;10472414;28;20033;-88
2023/07/02 12:02:54;;;;;;;4.05;3.00;;;;;;;;;;10473776;28;20032;-86
2023/07/02 12:07:55;;;;;;;4.45;3.17;;;;;;;;;;10465287;28;20518;-87
2023/07/02 12:12:56;;;;;;;4.13;3.05;;;;;;;;;;10477507;28;20036;-86
2023/07/02 12:17:57;;;;;;;4.32;3.25;;;;;;;;;;10481526;28;20055;-87
2023/07/02 12:22:58;;;;;;;3.80;1.73;;;;;;;;;;10467371;28;20456;-90
2023/07/02 12:27:59;;;;;;;2.63;1.25;;;;;;;;;;10480963;28;20041;-92
2023/07/02 12:33:01;;;;;;;3.28;1.35;;;;;;;;;;10476608;28;20102;-91
2023/07/02 12:38:03;;;;;;;4.47;2.08;;;;;;;;;;10474931;28;20056;-92
2023/07/02 12:43:04;;;;;;;4.03;2.47;;;;;;;;;;10478940;28;20744;-88
2023/07/02 12:48:05;;;;;;;6.22;2.70;;;;;;;;;;10486206;28;20029;-90
2023/07/02 12:53:06;;;;;;;3.50;2.50;;;;;;;;;;10484328;28;20063;-90
2023/07/02 12:58:08;;;;;;;6.35;4.00;;;;;;;;;;10484144;28;20135;-92
2023/07/02 13:03:10;;;;;;;6.15;4.32;;;;;;;;;;10471599;28;20086;-90
2023/07/02 13:08:11;;;;;;;9.13;5.18;;;;;;;;;;10478655;28;20102;-90
2023/07/02 13:13:12;;;;;;;9.80;4.70;;;;;;;;;;10472588;28;20150;-90
2023/07/02 13:18:13;;;;;;;9.07;4.50;;;;;;;;;;10471214;28;20048;-89
2023/07/02 13:23:14;;;;;;;6.28;4.80;;;;;;;;;;10482816;28;20056;-92
2023/07/02 13:28:16;;;;;;;4.05;3.65;;;;;;;;;;10485299;28;20047;-90
2023/07/02 13:33:17;;;;;;;5.40;4.43;;;;;;;;;;10483294;28;20056;-90
2023/07/02 13:38:18;;;;;;;5.55;4.03;;;;;;;;;;10493883;28;20047;-92
2023/07/02 13:43:19;;;;;;;5.97;4.05;;;;;;;;;;10491526;28;20029;-92
2023/07/02 13:48:20;;;;;;;6.47;4.15;;;;;;;;;;10491922;28;20028;-91
2023/07/02 13:53:21;;;;;;;6.78;4.43;;;;;;;;;;10490973;28;20075;-92
2023/07/02 13:58:23;;;;;;;6.57;4.30;;;;;;;;;;10489569;28;20574;-92
2023/07/02 14:03:24;;;;;;;4.55;3.67;;;;;;;;;;10491247;28;20028;-91
2023/07/02 14:08:27;;;;;;;5.53;4.80;;;;;;;;;;10490579;28;20106;-92
2023/07/02 14:13:28;;;;;;;6.78;4.40;;;;;;;;;;10490921;28;20047;-92
2023/07/02 14:18:29;;;;;;;4.47;4.07;;;;;;;;;;10490870;28;20056;-92
2023/07/02 14:23:30;;;;;;;4.85;4.07;;;;;;;;;;10504512;28;20383;-92
2023/07/02 14:28:31;;;;;;;4.47;4.07;;;;;;;;;;10466807;22;20063;-92
2023/07/02 14:33:39;;;;;;;6.43;4.10;;;;;;;;;;10465586;28;20082;-94
2023/07/02 14:38:41;;;;;;;5.63;4.70;;;;;;;;;;10468516;28;20033;-92
2023/07/02 14:43:45;;;;;;;5.32;4.22;;;;;;;;;;10444071;28;20187;-93
2023/07/02 14:48:46;;;;;;;5.28;3.95;;;;;;;;;;10472104;28;20029;-94
2023/07/02 14:53:47;;;;;;;4.18;3.78;;;;;;;;;;10458529;28;20048;-92
2023/07/02 14:58:48;;;;;;;3.70;3.40;;;;;;;;;;10473711;28;20464;-92
2023/07/02 15:03:50;;;;;;;3.95;2.65;;;;;;;;;;10470436;28;20517;-93
2023/07/02 15:09:11;;;;;;;3.05;2.75;;;;;;;;;;10499691;22;20149;-95
2023/07/02 15:14:40;;;;;;;3.40;2.95;;;;;;;;;;10503299;28;20024;-92
2023/07/02 15:19:42;;;;;;;2.75;2.50;;;;;;;;;;10503184;28;20103;-93
2023/07/02 15:30:16;;;;;;;2.83;2.38;;;;;;;;;;10489198;28;20056;-92
2023/07/02 15:35:17;;;;;;;3.10;2.80;;;;;;;;;;10492087;28;20102;-91
2023/07/02 15:40:22;;;;;;;3.63;3.08;;;;;;;;;;10489641;28;20058;-92
2023/07/02 15:45:23;;;;;;;3.47;2.83;;;;;;;;;;10488993;28;20048;-93
2023/07/02 15:50:24;;;;;;;5.30;2.83;;;;;;;;;;10489521;28;20028;-92
2023/07/02 15:55:25;;;;;;;3.08;2.78;;;;;;;;;;10493566;28;20064;-90
2023/07/02 16:00:26;;;;;;;3.63;2.53;;;;;;;;;;10520375;28;20122;-91
2023/07/02 16:05:28;;;;;;;3.08;2.78;;;;;;;;;;10513042;28;20039;-93
2023/07/02 16:10:29;;;;;;;2.95;2.72;;;;;;;;;;10504785;28;20052;-89
2023/07/02 16:15:30;;;;;;;2.92;2.72;;;;;;;;;;10514975;28;20028;-92
2023/07/02 16:20:31;;;;;;;3.10;2.80;;;;;;;;;;10475145;28;20082;-90
2023/07/02 16:25:32;;;;;;;3.35;2.60;;;;;;;;;;10496736;28;20471;-90
2023/07/02 16:30:33;;;;;;;3.60;3.30;;;;;;;;;;10528661;28;20057;-91
2023/07/02 16:35:34;;;;;;;3.45;2.78;;;;;;;;;;10517283;28;20113;-91
2023/07/02 16:40:36;;;;;;;3.33;2.90;;;;;;;;;;10504697;28;20035;-90
2023/07/02 16:45:37;;;;;;;2.80;2.60;;;;;;;;;;10519243;28;20032;-91
2023/07/02 16:50:38;;;;;;;4.38;2.67;;;;;;;;;;10510036;28;20135;-91
2023/07/02 16:55:41;;;;;;;3.92;2.63;;;;;;;;;;10517354;28;20119;-90
2023/07/02 17:00:42;;;;;;;4.97;3.20;;;;;;;;;;10527036;28;20039;-91
2023/07/02 17:05:44;;;;;;;2.58;2.35;;;;;;;;;;10519186;28;20028;-91
2023/07/02 17:10:45;;;;;;;7.72;2.70;;;;;;;;;;10506488;28;20147;-91
2023/07/02 17:15:46;;;;;;;3.83;2.75;;;;;;;;;;10489268;28;20045;-88
2023/07/02 17:20:53;;;;;;;4.10;2.55;;;;;;;;;;10498653;28;20043;-91
2023/07/02 17:25:54;;;;;;;2.72;2.47;;;;;;;;;;10507178;28;20056;-91
2023/07/02 17:30:56;;;;;;;2.50;2.30;;;;;;;;;;10503266;28;20020;-90
2023/07/02 17:35:57;;;;;;;3.17;2.72;;;;;;;;;;10473985;28;20039;-90
2023/07/02 17:40:59;;;;;;;2.85;2.40;;;;;;;;;;10514250;28;20036;-90
2023/07/02 17:46:00;;;;;;;2.97;2.50;;;;;;;;;;10488147;28;20025;-92
2023/07/02 17:51:01;;;;;;;3.08;2.80;;;;;;;;;;10516212;28;20089;-92
2023/07/02 17:56:02;;;;;;;3.63;3.00;;;;;;;;;;10506896;28;20040;-91
2023/07/02 18:01:03;;;;;;;3.05;2.60;;;;;;;;;;10511574;28;20459;-92
2023/07/02 18:06:04;;;;;;;4.38;3.28;;;;;;;;;;10491796;28;20120;-91
2023/07/02 18:11:05;;;;;;;3.45;3.15;;;;;;;;;;10479553;28;20044;-91
2023/07/02 18:16:06;;;;;;;4.78;3.03;;;;;;;;;;10487517;28;20090;-92
2023/07/02 18:21:08;;;;;;;6.00;4.30;;;;;;;;;;10491839;28;20020;-92
2023/07/02 18:26:09;;;;;;;10.65;5.07;;;;;;;;;;10489165;28;20497;-91
2023/07/02 18:31:10;;;;;;;11.15;5.53;;;;;;;;;;10490983;28;20044;-90
2023/07/02 18:36:12;;;;;;;8.20;5.47;;;;;;;;;;10490966;28;20025;-91
2023/07/02 18:41:13;;;;;;;7.70;5.75;;;;;;;;;;10489534;28;20066;-92
2023/07/02 18:46:14;;;;;;;9.10;6.03;;;;;;;;;;10489811;28;20040;-91
2023/07/02 18:51:15;;;;;;;8.25;6.07;;;;;;;;;;10489541;28;20034;-89
2023/07/02 18:56:16;;;;;;;7.55;5.82;;;;;;;;;;10524510;28;20028;-88
2023/07/02 19:01:17;;;;;;;7.20;4.82;;;;;;;;;;10532136;28;20044;-86
2023/07/02 19:06:18;;;;;;;7.13;4.50;;;;;;;;;;10518781;28;20036;-86
2023/07/02 19:11:19;;;;;;;5.50;4.60;;;;;;;;;;10532485;28;20492;-87
2023/07/02 19:16:20;;;;;;;7.13;4.07;;;;;;;;;;10532556;28;20052;-88
2023/07/02 19:21:23;;;;;;;6.28;5.00;;;;;;;;;;10518949;28;20036;-87
2023/07/02 19:26:24;;;;;;;9.50;6.45;;;;;;;;;;10515754;28;20028;-87
2023/07/02 19:31:25;;;;;;;6.88;5.53;;;;;;;;;;10532061;28;20661;-87
2023/07/02 19:36:26;;;;;;;9.27;7.28;;;;;;;;;;10531692;28;20036;-88
2023/07/02 19:41:27;;;;;;;9.32;7.65;;;;;;;;;;10531292;28;20093;-86
2023/07/02 19:46:28;;;;;;;10.18;7.57;;;;;;;;;;10532115;28;20028;-88
2023/07/02 19:51:29;;;;;;;7.65;5.90;;;;;;;;;;10531030;28;20024;-87
2023/07/02 19:56:31;;;;;;;7.97;6.05;;;;;;;;;;10529548;28;20388;-85
2023/07/02 20:01:32;;;;;;;8.68;5.57;;;;;;;;;;10522676;28;20028;-86
2023/07/02 20:06:33;;;;;;;6.68;5.70;;;;;;;;;;10523168;28;20744;-85
2023/07/02 20:11:34;;;;;;;6.18;5.30;;;;;;;;;;10530598;28;20526;-86
2023/07/02 20:16:35;;;;;;;6.53;4.93;;;;;;;;;;10528253;28;20620;-86
2023/07/02 20:21:37;;;;;;;8.02;5.25;;;;;;;;;;10528602;28;20068;-88
2023/07/02 20:26:38;;;;;;;7.93;5.80;;;;;;;;;;10528461;28;20127;-86
2023/07/02 20:31:39;;;;;;;5.97;5.20;;;;;;;;;;10529295;28;20030;-85
2023/07/02 20:36:40;;;;;;;6.20;5.53;;;;;;;;;;10527046;28;20034;-86
2023/07/02 20:41:45;;;;;;;12.48;5.65;;;;;;;;;;10528420;28;20108;-85
2023/07/02 20:46:47;;;;;;;6.70;5.03;;;;;;;;;;10528016;28;20068;-87
2023/07/02 20:51:49;;;;;;;6.10;4.90;;;;;;;;;;10528149;28;20055;-86
2023/07/02 20:56:50;;;;;;;6.15;5.38;;;;;;;;;;10528530;28;20032;-87
2023/07/02 21:01:51;;;;;;;5.05;4.50;;;;;;;;;;10526460;28;20027;-86
2023/07/02 21:06:52;;;;;;;6.35;4.70;;;;;;;;;;10527818;28;20028;-89
2023/07/02 21:11:53;;;;;;;5.43;4.50;;;;;;;;;;10527792;28;20435;-85
2023/07/02 21:16:54;;;;;;;5.10;4.38;;;;;;;;;;10527391;28;20040;-86
2023/07/02 21:21:55;;;;;;;6.90;4.85;;;;;;;;;;10498078;28;20032;-87
2023/07/02 21:26:56;;;;;;;5.13;4.63;;;;;;;;;;10516743;28;20099;-88
2023/07/02 21:31:57;;;;;;;5.80;5.18;;;;;;;;;;10526281;28;20469;-86
2023/07/02 21:36:58;;;;;;;7.20;4.72;;;;;;;;;;10526453;28;20792;-87
2023/07/02 21:41:59;;;;;;;5.05;4.53;;;;;;;;;;10526992;28;20031;-87
2023/07/02 21:47:00;;;;;;;6.80;4.68;;;;;;;;;;10527201;28;20057;-87
2023/07/02 21:52:01;;;;;;;7.35;5.05;;;;;;;;;;10534228;28;20107;-86
2023/07/02 21:57:02;;;;;;;7.97;5.28;;;;;;;;;;10535770;28;20130;-87
2023/07/02 22:02:03;;;;;;;9.68;5.07;;;;;;;;;;10534846;28;20028;-87
2023/07/02 22:07:04;;;;;;;5.65;4.78;;;;;;;;;;10532794;28;20039;-86
2023/07/02 22:12:05;;;;;;;7.50;5.43;;;;;;;;;;10534374;28;20538;-88
2023/07/02 22:17:09;;;;;;;9.00;5.18;;;;;;;;;;10534114;28;20051;-87
2023/07/02 22:22:10;;;;;;;5.70;5.10;;;;;;;;;;10532689;28;20047;-88
2023/07/02 22:27:11;;;;;;;7.13;5.45;;;;;;;;;;10534744;28;20038;-87
2023/07/02 22:32:12;;;;;;;5.90;5.30;;;;;;;;;;10525723;28;20078;-87
2023/07/02 22:37:13;;;;;;;7.50;5.57;;;;;;;;;;10526279;28;20475;-88
2023/07/02 22:42:14;;;;;;;5.90;5.28;;;;;;;;;;10533319;28;20049;-87
2023/07/02 22:47:16;;;;;;;7.22;5.60;;;;;;;;;;10531808;28;20023;-88
2023/07/02 22:52:18;;;;;;;7.60;5.60;;;;;;;;;;10531291;28;20032;-87
2023/07/02 22:57:19;;;;;;;6.93;4.97;;;;;;;;;;10532559;28;20043;-87
2023/07/02 23:02:20;;;;;;;9.05;6.30;;;;;;;;;;10530608;28;20462;-87
2023/07/02 23:07:21;;;;;;;10.07;5.80;;;;;;;;;;10530624;28;20495;-87
2023/07/02 23:12:23;;;;;;;11.23;5.93;;;;;;;;;;10530319;28;20058;-86
2023/07/02 23:17:24;;;;;;;8.30;6.10;;;;;;;;;;10530419;28;20044;-86
2023/07/02 23:22:25;;;;;;;6.70;5.60;;;;;;;;;;10531153;28;20096;-86
2023/07/02 23:27:27;;;;;;;7.75;6.28;;;;;;;;;;10531623;28;20077;-87
2023/07/02 23:32:29;;;;;;;7.20;6.05;;;;;;;;;;10529523;28;20028;-87
2023/07/02 23:37:30;;;;;;;8.98;6.47;;;;;;;;;;10529668;28;20040;-86
2023/07/02 23:42:31;;;;;;;7.60;5.72;;;;;;;;;;10529707;28;20024;-87
2023/07/02 23:47:32;;;;;;;6.82;5.70;;;;;;;;;;10531472;28;20036;-87
2023/07/02 23:52:36;;;;;;;7.68;5.53;;;;;;;;;;10529271;28;20042;-86
2023/07/02 23:57:37;;;;;;;6.63;5.72;;;;;;;;;;10530703;28;20386;-86
